KUNV/SCE METAR and TAF weather

Enter ICAO airport designator
Station Type Date Time Source
KUNV METAR 2020/04/07 06:35 UTC NOAA

KUNV 070635Z AUTO 36003KT 10SM SCT070 SCT080 OVC100 10/M04 A2997 RMK AO2 T01021040


Station Type Date Time Source
KUNV Decoded METAR 2020/04/07 06:35 UTC NOAA

State College, University Park Airport, PA, United States (KUNV) 40-51N 077-51W
Apr 07, 2020 - 02:35 AM EDT / 2020.04.07 0635 UTC
Wind: from the N (360 degrees) at 3 MPH (3 KT):0
Visibility: 10 mile(s):0
Sky conditions: overcast
Temperature: 50.4 F (10.2 C)
Dew Point: 24.8 F (-4.0 C)
Relative Humidity: 36%
Pressure (altimeter): 29.97 in. Hg (1014 hPa)
ob: KUNV 070635Z AUTO 36003KT 10SM SCT070 SCT080 OVC100 10/M04 A2997 RMK AO2 T01021040
cycle: 6

Station Type Date Time Source
KUNV TAF 2020/04/07 06:27 UTC NOAA

TAF KUNV 070525Z 0706/0806 VRB02KT P6SM OVC100
FM071800 24005KT P6SM VCSH OVC050
FM072300 23004KT P6SM VCSH OVC025

Example: see airport list